sensor_id;sensor_type;location;lat;lon;timestamp;pressure;altitude;pressure_sealevel;temperature;humidity
67517;BME280;68821;59.134;37.894;2023-10-09T00:01:51;97592.44;;;4.04;83.89
67517;BME280;68821;59.134;37.894;2023-10-09T00:04:17;97597.53;;;4.04;84.59
67517;BME280;68821;59.134;37.894;2023-10-09T00:06:44;97600.91;;;4.03;84.39
67517;BME280;68821;59.134;37.894;2023-10-09T00:09:10;97596.66;;;3.99;84.33
67517;BME280;68821;59.134;37.894;2023-10-09T00:11:48;97597.50;;;3.99;84.36
67517;BME280;68821;59.134;37.894;2023-10-09T00:14:14;97601.72;;;4.03;84.41
67517;BME280;68821;59.134;37.894;2023-10-09T00:16:44;97598.34;;;4.08;84.71
67517;BME280;68821;59.134;37.894;2023-10-09T00:19:14;97602.59;;;4.10;84.25
67517;BME280;68821;59.134;37.894;2023-10-09T00:21:49;97612.72;;;4.12;84.43
67517;BME280;68821;59.134;37.894;2023-10-09T00:24:16;97608.50;;;4.11;84.41
67517;BME280;68821;59.134;37.894;2023-10-09T00:26:50;97610.22;;;4.10;84.24
67517;BME280;68821;59.134;37.894;2023-10-09T00:29:17;97629.72;;;4.07;83.82
67517;BME280;68821;59.134;37.894;2023-10-09T00:31:53;97621.22;;;4.03;84.04
67517;BME280;68821;59.134;37.894;2023-10-09T00:34:42;97619.53;;;4.03;84.50
67517;BME280;68821;59.134;37.894;2023-10-09T00:37:09;97621.22;;;4.01;84.64
67517;BME280;68821;59.134;37.894;2023-10-09T00:39:50;97624.63;;;4.05;84.66
67517;BME280;68821;59.134;37.894;2023-10-09T00:42:23;97622.91;;;4.07;84.26
67517;BME280;68821;59.134;37.894;2023-10-09T00:45:01;97620.38;;;4.06;84.41
67517;BME280;68821;59.134;37.894;2023-10-09T00:47:31;97634.78;;;4.08;84.05
67517;BME280;68821;59.134;37.894;2023-10-09T00:50:06;97631.41;;;4.12;84.42
67517;BME280;68821;59.134;37.894;2023-10-09T00:52:44;97639.00;;;4.17;83.61
67517;BME280;68821;59.134;37.894;2023-10-09T00:55:18;97646.63;;;4.17;84.09
67517;BME280;68821;59.134;37.894;2023-10-09T00:58:02;97649.16;;;4.21;84.27
67517;BME280;68821;59.134;37.894;2023-10-09T01:00:35;97644.91;;;4.23;84.21
67517;BME280;68821;59.134;37.894;2023-10-09T01:03:12;97642.38;;;4.23;83.88
67517;BME280;68821;59.134;37.894;2023-10-09T01:05:56;97641.56;;;4.18;83.65
67517;BME280;68821;59.134;37.894;2023-10-09T01:08:27;97646.63;;;4.23;83.76
67517;BME280;68821;59.134;37.894;2023-10-09T01:10:58;97654.22;;;4.26;84.38
67517;BME280;68821;59.134;37.894;2023-10-09T01:13:41;97654.25;;;4.25;83.51
67517;BME280;68821;59.134;37.894;2023-10-09T01:16:27;97662.72;;;4.30;83.85
67517;BME280;68821;59.134;37.894;2023-10-09T01:18:57;97667.81;;;4.33;83.50
67517;BME280;68821;59.134;37.894;2023-10-09T01:21:23;97666.94;;;4.34;84.00
67517;BME280;68821;59.134;37.894;2023-10-09T01:23:51;97666.97;;;4.31;83.99
67517;BME280;68821;59.134;37.894;2023-10-09T01:26:37;97672.88;;;4.31;83.91
67517;BME280;68821;59.134;37.894;2023-10-09T01:29:12;97666.13;;;4.27;83.48
67517;BME280;68821;59.134;37.894;2023-10-09T01:31:46;97674.59;;;4.28;83.48
67517;BME280;68821;59.134;37.894;2023-10-09T01:34:26;97666.09;;;4.24;83.18
67517;BME280;68821;59.134;37.894;2023-10-09T01:37:17;97675.44;;;4.22;83.87
67517;BME280;68821;59.134;37.894;2023-10-09T01:39:52;97689.00;;;4.19;83.79
67517;BME280;68821;59.134;37.894;2023-10-09T01:42:20;97687.34;;;4.12;83.71
67517;BME280;68821;59.134;37.894;2023-10-09T01:45:10;97680.53;;;4.05;83.43
67517;BME280;68821;59.134;37.894;2023-10-09T01:47:41;97685.63;;;4.03;83.31
67517;BME280;68821;59.134;37.894;2023-10-09T01:50:17;97688.19;;;4.02;83.56
67517;BME280;68821;59.134;37.894;2023-10-09T01:52:48;97699.19;;;3.98;83.48
67517;BME280;68821;59.134;37.894;2023-10-09T01:55:14;97689.88;;;3.98;84.29
67517;BME280;68821;59.134;37.894;2023-10-09T01:58:03;97699.19;;;4.02;83.87
67517;BME280;68821;59.134;37.894;2023-10-09T02:00:48;97686.50;;;3.98;83.66
67517;BME280;68821;59.134;37.894;2023-10-09T02:03:19;97702.59;;;4.06;83.63
67517;BME280;68821;59.134;37.894;2023-10-09T02:05:50;97699.19;;;4.07;84.22
67517;BME280;68821;59.134;37.894;2023-10-09T02:08:17;97702.59;;;4.06;83.84
67517;BME280;68821;59.134;37.894;2023-10-09T02:10:48;97707.66;;;4.05;83.91
67517;BME280;68821;59.134;37.894;2023-10-09T02:13:14;97714.44;;;4.07;83.75
67517;BME280;68821;59.134;37.894;2023-10-09T02:15:43;97711.91;;;4.09;83.67
67517;BME280;68821;59.134;37.894;2023-10-09T02:23:28;97716.13;;;4.07;83.93
67517;BME280;68821;59.134;37.894;2023-10-09T02:26:11;97717.00;;;4.02;83.87
67517;BME280;68821;59.134;37.894;2023-10-09T02:28:46;97719.53;;;4.01;84.57
67517;BME280;68821;59.134;37.894;2023-10-09T02:31:25;97725.47;;;3.98;84.23
67517;BME280;68821;59.134;37.894;2023-10-09T02:33:54;97728.84;;;3.93;84.22
67517;BME280;68821;59.134;37.894;2023-10-09T02:36:22;97728.00;;;3.94;84.24
67517;BME280;68821;59.134;37.894;2023-10-09T02:38:48;97734.75;;;3.93;84.57
67517;BME280;68821;59.134;37.894;2023-10-09T02:41:17;97730.56;;;3.94;84.04
67517;BME280;68821;59.134;37.894;2023-10-09T02:43:46;97733.09;;;3.94;84.15
67517;BME280;68821;59.134;37.894;2023-10-09T02:46:14;97733.06;;;3.95;84.18
67517;BME280;68821;59.134;37.894;2023-10-09T02:48:50;97735.63;;;3.97;84.48
67517;BME280;68821;59.134;37.894;2023-10-09T02:51:20;97737.31;;;3.96;84.19
67517;BME280;68821;59.134;37.894;2023-10-09T02:54:00;97746.63;;;3.97;84.15
67517;BME280;68821;59.134;37.894;2023-10-09T02:56:35;97744.94;;;3.95;84.39
67517;BME280;68821;59.134;37.894;2023-10-09T02:59:24;97747.47;;;3.93;84.70
67517;BME280;68821;59.134;37.894;2023-10-09T03:01:51;97743.25;;;3.94;84.61
67517;BME280;68821;59.134;37.894;2023-10-09T03:04:19;97756.78;;;3.93;84.81
67517;BME280;68821;59.134;37.894;2023-10-09T03:06:49;97749.19;;;3.90;84.69
67517;BME280;68821;59.134;37.894;2023-10-09T03:09:19;97754.25;;;3.91;84.80
67517;BME280;68821;59.134;37.894;2023-10-09T03:12:00;97758.50;;;3.94;84.97
67517;BME280;68821;59.134;37.894;2023-10-09T03:14:32;97772.06;;;3.99;85.05
67517;BME280;68821;59.134;37.894;2023-10-09T03:17:01;97771.22;;;4.05;84.57
67517;BME280;68821;59.134;37.894;2023-10-09T03:19:29;97766.13;;;4.06;84.60
67517;BME280;68821;59.134;37.894;2023-10-09T03:21:56;97758.50;;;4.05;84.73
67517;BME280;68821;59.134;37.894;2023-10-09T03:24:26;97776.31;;;4.06;84.89
67517;BME280;68821;59.134;37.894;2023-10-09T03:26:57;97770.38;;;4.07;84.52
67517;BME280;68821;59.134;37.894;2023-10-09T03:29:24;97772.91;;;4.06;84.53
67517;BME280;68821;59.134;37.894;2023-10-09T03:31:51;97780.53;;;4.09;84.96
67517;BME280;68821;59.134;37.894;2023-10-09T03:34:17;97777.16;;;4.08;84.67
67517;BME280;68821;59.134;37.894;2023-10-09T03:36:47;97776.28;;;4.09;84.73
67517;BME280;68821;59.134;37.894;2023-10-09T03:39:17;97781.38;;;4.15;84.95
67517;BME280;68821;59.134;37.894;2023-10-09T03:42:02;97775.47;;;4.16;84.44
67517;BME280;68821;59.134;37.894;2023-10-09T03:44:32;97777.16;;;4.19;84.28
67517;BME280;68821;59.134;37.894;2023-10-09T03:47:00;97772.06;;;4.22;84.48
67517;BME280;68821;59.134;37.894;2023-10-09T03:49:28;97780.53;;;4.21;84.65
67517;BME280;68821;59.134;37.894;2023-10-09T03:51:55;97783.09;;;4.22;84.88
67517;BME280;68821;59.134;37.894;2023-10-09T03:54:21;97778.84;;;4.25;84.18
67517;BME280;68821;59.134;37.894;2023-10-09T03:56:49;97789.03;;;4.23;84.50
67517;BME280;68821;59.134;37.894;2023-10-09T03:59:17;97794.97;;;4.27;84.83
67517;BME280;68821;59.134;37.894;2023-10-09T04:01:46;97786.47;;;4.29;85.04
67517;BME280;68821;59.134;37.894;2023-10-09T04:04:14;97797.50;;;4.31;85.16
67517;BME280;68821;59.134;37.894;2023-10-09T04:06:41;97803.44;;;4.33;84.18
67517;BME280;68821;59.134;37.894;2023-10-09T04:09:09;97806.81;;;4.32;84.14
67517;BME280;68821;59.134;37.894;2023-10-09T04:11:45;97805.97;;;4.33;83.96
67517;BME280;68821;59.134;37.894;2023-10-09T04:14:16;97813.59;;;4.33;84.21
67517;BME280;68821;59.134;37.894;2023-10-09T04:17:02;97815.28;;;4.34;84.25
67517;BME280;68821;59.134;37.894;2023-10-09T04:19:47;97821.22;;;4.30;84.27
67517;BME280;68821;59.134;37.894;2023-10-09T04:22:39;97811.06;;;4.22;83.78
67517;BME280;68821;59.134;37.894;2023-10-09T04:25:22;97821.22;;;4.26;84.00
67517;BME280;68821;59.134;37.894;2023-10-09T04:27:55;97836.47;;;4.30;84.11
67517;BME280;68821;59.134;37.894;2023-10-09T04:30:36;97834.81;;;4.31;83.77
67517;BME280;68821;59.134;37.894;2023-10-09T04:33:06;97845.81;;;4.33;84.24
67517;BME280;68821;59.134;37.894;2023-10-09T04:36:03;97844.13;;;4.38;84.04
67517;BME280;68821;59.134;37.894;2023-10-09T04:38:46;97848.38;;;4.43;84.29
67517;BME280;68821;59.134;37.894;2023-10-09T04:41:41;97851.75;;;4.42;83.75
67517;BME280;68821;59.134;37.894;2023-10-09T04:44:08;97848.34;;;4.40;83.84
67517;BME280;68821;59.134;37.894;2023-10-09T04:46:47;97852.59;;;4.40;84.20
67517;BME280;68821;59.134;37.894;2023-10-09T04:49:38;97866.19;;;4.45;84.17
67517;BME280;68821;59.134;37.894;2023-10-09T04:52:22;97850.06;;;4.46;84.40
67517;BME280;68821;59.134;37.894;2023-10-09T04:54:51;97850.94;;;4.45;84.13
67517;BME280;68821;59.134;37.894;2023-10-09T04:57:34;97856.84;;;4.49;84.00
67517;BME280;68821;59.134;37.894;2023-10-09T05:00:16;97857.69;;;4.54;83.64
67517;BME280;68821;59.134;37.894;2023-10-09T05:02:49;97857.69;;;4.58;83.77
67517;BME280;68821;59.134;37.894;2023-10-09T05:05:21;97867.03;;;4.62;83.90
67517;BME280;68821;59.134;37.894;2023-10-09T05:08:10;97883.13;;;4.64;83.54
67517;BME280;68821;59.134;37.894;2023-10-09T05:10:46;97881.47;;;4.63;83.26
67517;BME280;68821;59.134;37.894;2023-10-09T05:13:25;97872.09;;;4.61;83.45
67517;BME280;68821;59.134;37.894;2023-10-09T05:18:53;97892.47;;;4.69;83.77
67517;BME280;68821;59.134;37.894;2023-10-09T05:24:04;97890.75;;;4.57;82.74
67517;BME280;68821;59.134;37.894;2023-10-09T05:26:43;97889.09;;;4.51;82.60
67517;BME280;68821;59.134;37.894;2023-10-09T05:29:21;97900.09;;;4.50;83.44
67517;BME280;68821;59.134;37.894;2023-10-09T05:32:04;97896.72;;;4.50;83.25
67517;BME280;68821;59.134;37.894;2023-10-09T05:34:40;97908.59;;;4.60;83.26
67517;BME280;68821;59.134;37.894;2023-10-09T05:37:25;97919.63;;;4.68;83.53
67517;BME280;68821;59.134;37.894;2023-10-09T05:39:52;97910.28;;;4.73;82.80
67517;BME280;68821;59.134;37.894;2023-10-09T05:42:29;97920.47;;;4.72;82.64
67517;BME280;68821;59.134;37.894;2023-10-09T05:45:10;97919.63;;;4.74;82.60
67517;BME280;68821;59.134;37.894;2023-10-09T05:47:54;97928.94;;;4.71;82.47
67517;BME280;68821;59.134;37.894;2023-10-09T05:50:27;97923.88;;;4.66;81.73
67517;BME280;68821;59.134;37.894;2023-10-09T05:52:55;97943.34;;;4.67;82.60
67517;BME280;68821;59.134;37.894;2023-10-09T05:55:25;97939.97;;;4.71;82.13
67517;BME280;68821;59.134;37.894;2023-10-09T05:58:10;97943.38;;;4.78;82.12
67517;BME280;68821;59.134;37.894;2023-10-09T06:00:54;97940.81;;;4.79;82.62
67517;BME280;68821;59.134;37.894;2023-10-09T06:03:39;97952.69;;;4.83;82.41
67517;BME280;68821;59.134;37.894;2023-10-09T06:06:16;97956.97;;;4.84;81.66
67517;BME280;68821;59.134;37.894;2023-10-09T06:09:12;97962.91;;;4.97;81.85
67517;BME280;68821;59.134;37.894;2023-10-09T06:11:42;97962.06;;;5.01;81.96
67517;BME280;68821;59.134;37.894;2023-10-09T06:14:19;97973.09;;;5.03;80.80
67517;BME280;68821;59.134;37.894;2023-10-09T06:17:05;97979.03;;;4.99;81.48
67517;BME280;68821;59.134;37.894;2023-10-09T06:19:37;97984.13;;;4.96;80.85
67517;BME280;68821;59.134;37.894;2023-10-09T06:22:10;97971.41;;;4.90;81.05
67517;BME280;68821;59.134;37.894;2023-10-09T06:25:06;97997.69;;;4.97;81.15
67517;BME280;68821;59.134;37.894;2023-10-09T06:27:35;97995.16;;;4.95;80.77
67517;BME280;68821;59.134;37.894;2023-10-09T06:30:01;97999.41;;;4.95;81.00
67517;BME280;68821;59.134;37.894;2023-10-09T06:32:59;97989.19;;;4.92;80.62
67517;BME280;68821;59.134;37.894;2023-10-09T06:35:46;98005.34;;;5.01;81.06
67517;BME280;68821;59.134;37.894;2023-10-09T06:38:22;98015.50;;;5.06;80.45
67517;BME280;68821;59.134;37.894;2023-10-09T06:40:50;98013.81;;;5.02;80.16
67517;BME280;68821;59.134;37.894;2023-10-09T06:43:43;98020.59;;;5.00;80.82
67517;BME280;68821;59.134;37.894;2023-10-09T06:46:15;98017.22;;;5.01;80.33
67517;BME280;68821;59.134;37.894;2023-10-09T06:48:50;98030.81;;;5.08;80.33
67517;BME280;68821;59.134;37.894;2023-10-09T06:51:23;98018.91;;;5.10;79.75
67517;BME280;68821;59.134;37.894;2023-10-09T06:53:56;98024.84;;;5.04;79.35
67517;BME280;68821;59.134;37.894;2023-10-09T06:56:26;98017.19;;;4.92;80.04
67517;BME280;68821;59.134;37.894;2023-10-09T06:59:03;98026.53;;;4.80;80.04
67517;BME280;68821;59.134;37.894;2023-10-09T07:01:53;98029.91;;;4.79;80.12
67517;BME280;68821;59.134;37.894;2023-10-09T07:04:35;98032.47;;;4.87;80.36
67517;BME280;68821;59.134;37.894;2023-10-09T07:07:01;98029.09;;;4.91;79.95
67517;BME280;68821;59.134;37.894;2023-10-09T07:09:28;98036.72;;;4.96;80.40
67517;BME280;68821;59.134;37.894;2023-10-09T07:12:09;98040.97;;;5.00;80.28
67517;BME280;68821;59.134;37.894;2023-10-09T07:14:40;98043.53;;;5.01;80.33
67517;BME280;68821;59.134;37.894;2023-10-09T07:17:07;98054.59;;;5.07;79.27
67517;BME280;68821;59.134;37.894;2023-10-09T07:20:10;98060.50;;;5.12;79.19
67517;BME280;68821;59.134;37.894;2023-10-09T07:23:02;98052.06;;;5.19;79.74
67517;BME280;68821;59.134;37.894;2023-10-09T07:25:44;98057.97;;;5.36;78.93
67517;BME280;68821;59.134;37.894;2023-10-09T07:28:23;98058.84;;;5.54;79.31
67517;BME280;68821;59.134;37.894;2023-10-09T07:31:21;98069.88;;;5.68;78.34
67517;BME280;68821;59.134;37.894;2023-10-09T07:33:51;98066.47;;;5.71;78.57
67517;BME280;68821;59.134;37.894;2023-10-09T07:36:23;98073.25;;;5.82;78.44
67517;BME280;68821;59.134;37.894;2023-10-09T07:39:02;98077.47;;;5.94;78.82
67517;BME280;68821;59.134;37.894;2023-10-09T07:41:32;98077.50;;;5.79;77.57
67517;BME280;68821;59.134;37.894;2023-10-09T07:43:58;98078.34;;;5.65;78.73
67517;BME280;68821;59.134;37.894;2023-10-09T07:46:44;98082.63;;;5.68;78.04
67517;BME280;68821;59.134;37.894;2023-10-09T07:49:39;98083.44;;;5.84;78.88
67517;BME280;68821;59.134;37.894;2023-10-09T07:52:06;98078.34;;;6.01;77.98
67517;BME280;68821;59.134;37.894;2023-10-09T07:54:32;98085.97;;;6.19;78.03
67517;BME280;68821;59.134;37.894;2023-10-09T07:56:59;98081.69;;;6.34;77.79
67517;BME280;68821;59.134;37.894;2023-10-09T07:59:35;98084.19;;;6.44;77.23
67517;BME280;68821;59.134;37.894;2023-10-09T08:02:07;98091.00;;;6.36;77.32
67517;BME280;68821;59.134;37.894;2023-10-09T08:04:40;98091.88;;;6.29;77.48
67517;BME280;68821;59.134;37.894;2023-10-09T08:07:15;98104.63;;;6.37;77.64
67517;BME280;68821;59.134;37.894;2023-10-09T08:10:04;98101.22;;;6.36;77.28
67517;BME280;68821;59.134;37.894;2023-10-09T08:12:42;98103.75;;;6.39;77.59
67517;BME280;68821;59.134;37.894;2023-10-09T08:15:15;98102.03;;;6.48;77.66
67517;BME280;68821;59.134;37.894;2023-10-09T08:17:45;98105.44;;;6.48;77.04
67517;BME280;68821;59.134;37.894;2023-10-09T08:20:23;98112.25;;;6.44;77.67
67517;BME280;68821;59.134;37.894;2023-10-09T08:22:53;98113.97;;;6.44;77.62
67517;BME280;68821;59.134;37.894;2023-10-09T08:25:25;98118.22;;;6.48;77.33
67517;BME280;68821;59.134;37.894;2023-10-09T08:27:59;98128.38;;;6.50;77.75
67517;BME280;68821;59.134;37.894;2023-10-09T08:30:48;98129.28;;;6.44;77.48
67517;BME280;68821;59.134;37.894;2023-10-09T08:33:20;98139.47;;;6.42;77.64
67517;BME280;68821;59.134;37.894;2023-10-09T08:35:56;98140.34;;;6.40;77.46
67517;BME280;68821;59.134;37.894;2023-10-09T08:38:30;98136.09;;;6.36;77.72
67517;BME280;68821;59.134;37.894;2023-10-09T08:41:10;98131.00;;;6.31;78.01
67517;BME280;68821;59.134;37.894;2023-10-09T08:43:50;98136.97;;;6.32;77.37
67517;BME280;68821;59.134;37.894;2023-10-09T08:46:27;98141.22;;;6.27;77.66
67517;BME280;68821;59.134;37.894;2023-10-09T08:48:58;98143.78;;;6.28;77.71
67517;BME280;68821;59.134;37.894;2023-10-09T08:51:25;98141.22;;;6.27;77.92
67517;BME280;68821;59.134;37.894;2023-10-09T08:53:52;98139.53;;;6.32;77.12
67517;BME280;68821;59.134;37.894;2023-10-09T08:56:19;98146.28;;;6.39;77.90
67517;BME280;68821;59.134;37.894;2023-10-09T08:58:53;98154.81;;;6.36;77.21
67517;BME280;68821;59.134;37.894;2023-10-09T09:01:20;98170.16;;;6.26;77.48
67517;BME280;68821;59.134;37.894;2023-10-09T09:03:51;98165.94;;;6.03;77.04
67517;BME280;68821;59.134;37.894;2023-10-09T09:06:21;98159.94;;;5.89;77.65
67517;BME280;68821;59.134;37.894;2023-10-09T09:08:50;98182.88;;;5.84;77.78
67517;BME280;68821;59.134;37.894;2023-10-09T09:11:25;98168.41;;;5.74;77.83
67517;BME280;68821;59.134;37.894;2023-10-09T09:16:33;98171.81;;;5.70;78.82
67517;BME280;68821;59.134;37.894;2023-10-09T09:19:03;98179.47;;;5.83;78.23
67517;BME280;68821;59.134;37.894;2023-10-09T09:21:37;98182.03;;;5.90;78.39
67517;BME280;68821;59.134;37.894;2023-10-09T09:24:08;98181.22;;;5.95;78.25
67517;BME280;68821;59.134;37.894;2023-10-09T09:26:54;98181.19;;;5.98;77.48
67517;BME280;68821;59.134;37.894;2023-10-09T09:32:04;98184.63;;;5.97;77.52
67517;BME280;68821;59.134;37.894;2023-10-09T09:34:49;98187.16;;;5.96;77.77
67517;BME280;68821;59.134;37.894;2023-10-09T09:37:23;98187.16;;;5.96;77.70
67517;BME280;68821;59.134;37.894;2023-10-09T09:40:05;98186.28;;;6.17;78.69
67517;BME280;68821;59.134;37.894;2023-10-09T09:42:50;98188.78;;;6.57;78.13
67517;BME280;68821;59.134;37.894;2023-10-09T09:45:17;98187.06;;;6.67;77.23
67517;BME280;68821;59.134;37.894;2023-10-09T09:47:49;98197.31;;;6.54;76.34
67517;BME280;68821;59.134;37.894;2023-10-09T09:50:20;98199.03;;;6.38;76.64
67517;BME280;68821;59.134;37.894;2023-10-09T09:52:55;98205.00;;;6.36;77.13
67517;BME280;68821;59.134;37.894;2023-10-09T09:55:33;98208.38;;;6.45;77.70
67517;BME280;68821;59.134;37.894;2023-10-09T09:58:04;98196.41;;;6.77;77.15
67517;BME280;68821;59.134;37.894;2023-10-09T10:00:35;98209.13;;;6.88;76.70
67517;BME280;68821;59.134;37.894;2023-10-09T10:03:15;98214.19;;;7.01;76.50
67517;BME280;68821;59.134;37.894;2023-10-09T10:05:45;98210.69;;;7.21;76.50
67517;BME280;68821;59.134;37.894;2023-10-09T10:08:16;98211.44;;;7.41;75.93
67517;BME280;68821;59.134;37.894;2023-10-09T10:10:46;98204.69;;;7.33;75.31
67517;BME280;68821;59.134;37.894;2023-10-09T10:16:08;98217.56;;;7.07;75.67
67517;BME280;68821;59.134;37.894;2023-10-09T10:19:00;98209.97;;;6.88;76.00
67517;BME280;68821;59.134;37.894;2023-10-09T10:21:34;98222.75;;;6.85;77.13
67517;BME280;68821;59.134;37.894;2023-10-09T10:29:35;98226.91;;;7.11;74.77
67517;BME280;68821;59.134;37.894;2023-10-09T10:32:04;98210.00;;;6.85;74.96
67517;BME280;68821;59.134;37.894;2023-10-09T10:34:52;98223.63;;;6.79;74.93
67517;BME280;68821;59.134;37.894;2023-10-09T10:37:36;98227.84;;;6.88;75.15
67517;BME280;68821;59.134;37.894;2023-10-09T10:40:05;98235.50;;;6.93;75.27
67517;BME280;68821;59.134;37.894;2023-10-09T10:42:48;98233.84;;;6.78;75.18
67517;BME280;68821;59.134;37.894;2023-10-09T10:45:33;98247.50;;;6.55;75.23
67517;BME280;68821;59.134;37.894;2023-10-09T10:48:11;98244.97;;;6.32;75.75
67517;BME280;68821;59.134;37.894;2023-10-09T10:50:49;98250.94;;;6.10;75.52
67517;BME280;68821;59.134;37.894;2023-10-09T10:53:23;98250.03;;;5.89;76.73
67517;BME280;68821;59.134;37.894;2023-10-09T10:56:00;98253.41;;;5.82;76.53
67517;BME280;68821;59.134;37.894;2023-10-09T10:58:42;98245.78;;;5.94;77.26
67517;BME280;68821;59.134;37.894;2023-10-09T11:01:35;98244.13;;;6.13;76.91
67517;BME280;68821;59.134;37.894;2023-10-09T11:04:25;98249.22;;;6.27;77.16
67517;BME280;68821;59.134;37.894;2023-10-09T11:07:11;98251.78;;;6.26;77.01
67517;BME280;68821;59.134;37.894;2023-10-09T11:09:46;98247.53;;;6.24;76.57
67517;BME280;68821;59.134;37.894;2023-10-09T11:12:28;98256.03;;;6.22;76.25
67517;BME280;68821;59.134;37.894;2023-10-09T11:15:13;98257.75;;;6.15;77.09
67517;BME280;68821;59.134;37.894;2023-10-09T11:18:02;98259.44;;;6.10;76.51
67517;BME280;68821;59.134;37.894;2023-10-09T11:20:52;98262.84;;;6.09;76.28
67517;BME280;68821;59.134;37.894;2023-10-09T11:23:33;98256.88;;;6.15;76.99
67517;BME280;68821;59.134;37.894;2023-10-09T11:26:02;98269.66;;;6.38;77.52
67517;BME280;68821;59.134;37.894;2023-10-09T11:29:12;98287.50;;;6.41;75.92
67517;BME280;68821;59.134;37.894;2023-10-09T11:34:27;98293.44;;;6.12;76.72
67517;BME280;68821;59.134;37.894;2023-10-09T11:37:14;98296.81;;;6.00;76.91
67517;BME280;68821;59.134;37.894;2023-10-09T11:39:59;98257.66;;;5.72;76.74
67517;BME280;68821;59.134;37.894;2023-10-09T11:42:30;98287.41;;;5.81;76.71
67517;BME280;68821;59.134;37.894;2023-10-09T11:45:06;98299.28;;;5.70;76.73
67517;BME280;68821;59.134;37.894;2023-10-09T11:47:52;98296.72;;;5.59;77.81
67517;BME280;68821;59.134;37.894;2023-10-09T11:50:42;98297.53;;;5.55;77.27
67517;BME280;68821;59.134;37.894;2023-10-09T11:53:10;98300.09;;;5.56;76.83
67517;BME280;68821;59.134;37.894;2023-10-09T11:55:50;98301.81;;;5.63;77.11
67517;BME280;68821;59.134;37.894;2023-10-09T11:58:19;98306.94;;;5.77;77.28
67517;BME280;68821;59.134;37.894;2023-10-09T12:00:53;98313.81;;;5.91;77.26
67517;BME280;68821;59.134;37.894;2023-10-09T12:03:27;98307.03;;;5.96;77.22
67517;BME280;68821;59.134;37.894;2023-10-09T12:06:00;98309.59;;;5.99;76.95
67517;BME280;68821;59.134;37.894;2023-10-09T12:08:38;98308.75;;;6.09;76.76
67517;BME280;68821;59.134;37.894;2023-10-09T12:11:07;98315.56;;;6.30;76.97
67517;BME280;68821;59.134;37.894;2023-10-09T12:13:35;98313.03;;;6.44;77.30
67517;BME280;68821;59.134;37.894;2023-10-09T12:16:03;98316.44;;;6.57;76.64
67517;BME280;68821;59.134;37.894;2023-10-09T12:18:34;98313.00;;;6.73;76.47
67517;BME280;68821;59.134;37.894;2023-10-09T12:21:00;98307.88;;;6.84;76.34
67517;BME280;68821;59.134;37.894;2023-10-09T12:23:30;98307.03;;;6.83;76.30
67517;BME280;68821;59.134;37.894;2023-10-09T12:26:03;98315.56;;;6.85;75.80
67517;BME280;68821;59.134;37.894;2023-10-09T12:28:29;98318.09;;;6.87;75.15
67517;BME280;68821;59.134;37.894;2023-10-09T12:30:59;98337.69;;;6.77;74.81
67517;BME280;68821;59.134;37.894;2023-10-09T12:33:29;98333.44;;;6.79;75.56
67517;BME280;68821;59.134;37.894;2023-10-09T12:35:56;98322.34;;;6.93;75.50
67517;BME280;68821;59.134;37.894;2023-10-09T12:38:31;98346.16;;;7.18;74.95
67517;BME280;68821;59.134;37.894;2023-10-09T12:41:04;98341.88;;;7.17;74.79
67517;BME280;68821;59.134;37.894;2023-10-09T12:43:52;98346.16;;;7.10;73.92
67517;BME280;68821;59.134;37.894;2023-10-09T12:46:22;98352.97;;;7.00;73.80
67517;BME280;68821;59.134;37.894;2023-10-09T12:49:03;98367.50;;;6.89;74.49
67517;BME280;68821;59.134;37.894;2023-10-09T12:51:29;98369.19;;;6.78;74.32
67517;BME280;68821;59.134;37.894;2023-10-09T12:53:57;98370.06;;;6.64;73.58
67517;BME280;68821;59.134;37.894;2023-10-09T12:56:24;98362.38;;;6.49;74.24
67517;BME280;68821;59.134;37.894;2023-10-09T12:58:59;98354.69;;;6.35;74.74
67517;BME280;68821;59.134;37.894;2023-10-09T13:01:27;98362.34;;;6.31;74.49
67517;BME280;68821;59.134;37.894;2023-10-09T13:03:58;98368.31;;;6.33;75.20
67517;BME280;68821;59.134;37.894;2023-10-09T13:06:26;98367.47;;;6.31;74.08
67517;BME280;68821;59.134;37.894;2023-10-09T13:08:52;98373.41;;;6.23;74.73
67517;BME280;68821;59.134;37.894;2023-10-09T13:11:18;98381.03;;;6.16;74.54
67517;BME280;68821;59.134;37.894;2023-10-09T13:13:46;98386.09;;;6.07;74.45
67517;BME280;68821;59.134;37.894;2023-10-09T13:16:19;98385.22;;;5.98;74.10
67517;BME280;68821;59.134;37.894;2023-10-09T13:18:55;98394.53;;;5.90;74.77
67517;BME280;68821;59.134;37.894;2023-10-09T13:21:26;98391.09;;;5.79;74.71
67517;BME280;68821;59.134;37.894;2023-10-09T13:23:58;98393.63;;;5.74;74.76
67517;BME280;68821;59.134;37.894;2023-10-09T13:26:26;98390.22;;;5.72;74.81
67517;BME280;68821;59.134;37.894;2023-10-09T13:28:57;98382.56;;;5.71;74.67
67517;BME280;68821;59.134;37.894;2023-10-09T13:31:25;98402.94;;;5.69;74.62
67517;BME280;68821;59.134;37.894;2023-10-09T13:33:53;98403.81;;;5.71;74.74
67517;BME280;68821;59.134;37.894;2023-10-09T13:36:22;98405.50;;;5.71;75.59
67517;BME280;68821;59.134;37.894;2023-10-09T13:39:03;98410.63;;;5.71;74.76
67517;BME280;68821;59.134;37.894;2023-10-09T13:41:53;98411.44;;;5.70;75.58
67517;BME280;68821;59.134;37.894;2023-10-09T13:44:31;98410.59;;;5.66;75.34
67517;BME280;68821;59.134;37.894;2023-10-09T13:46:59;98411.44;;;5.65;75.30
67517;BME280;68821;59.134;37.894;2023-10-09T13:49:27;98414.81;;;5.62;75.60
67517;BME280;68821;59.134;37.894;2023-10-09T13:51:57;98416.50;;;5.60;75.45
67517;BME280;68821;59.134;37.894;2023-10-09T13:54:24;98424.16;;;5.59;75.18
67517;BME280;68821;59.134;37.894;2023-10-09T13:57:00;98421.59;;;5.59;74.87
67517;BME280;68821;59.134;37.894;2023-10-09T13:59:30;98434.34;;;5.60;75.72
67517;BME280;68821;59.134;37.894;2023-10-09T14:02:02;98429.28;;;5.62;75.81
67517;BME280;68821;59.134;37.894;2023-10-09T14:04:35;98430.97;;;5.63;75.15
67517;BME280;68821;59.134;37.894;2023-10-09T14:07:02;98432.66;;;5.65;75.23
67517;BME280;68821;59.134;37.894;2023-10-09T14:09:31;98449.66;;;5.63;74.89